createdAt,value
2017-05-15T00:00:34.395Z,79.20
2017-05-15T00:10:42.975Z,79.80
2017-05-15T00:15:41.965Z,79.50
2017-05-15T00:18:09.930Z,79.30
2017-05-15T00:23:09.911Z,80.30
2017-05-15T00:28:10.380Z,81.10
2017-05-15T00:35:43.573Z,81.00
2017-05-15T00:38:12.630Z,81.30
2017-05-15T00:40:43.662Z,81.30
2017-05-15T00:43:10.516Z,81.30
2017-05-15T00:45:40.394Z,80.70
2017-05-15T00:48:10.207Z,81.00
2017-05-15T00:55:44.305Z,81.00
2017-05-15T00:58:12.334Z,80.30
2017-05-15T01:00:40.930Z,80.20
2017-05-15T01:03:11.054Z,80.20
2017-05-15T01:05:41.738Z,81.00
2017-05-15T01:08:08.889Z,81.20
2017-05-15T01:10:37.453Z,81.20
2017-05-15T01:13:08.917Z,81.90
2017-05-15T01:15:36.627Z,81.90
2017-05-15T01:20:36.234Z,82.00
2017-05-15T01:23:13.602Z,81.30
2017-05-15T01:25:40.508Z,81.30
2017-05-15T01:28:08.233Z,80.60
2017-05-15T01:30:36.172Z,80.60
2017-05-15T01:33:04.579Z,81.00
2017-05-15T01:38:06.533Z,81.20
2017-05-15T01:40:37.014Z,81.30
2017-05-15T01:43:05.785Z,80.60
2017-05-15T01:45:39.458Z,81.20
2017-05-15T01:48:06.313Z,81.30
2017-05-15T01:53:05.497Z,81.60
2017-05-15T01:55:36.398Z,82.10
2017-05-15T01:58:09.329Z,82.00
2017-05-15T02:00:38.025Z,82.10
2017-05-15T02:03:06.689Z,81.60
2017-05-15T02:05:34.602Z,81.50
2017-05-15T02:08:05.006Z,81.80
2017-05-15T02:10:32.295Z,81.50
2017-05-15T02:12:59.994Z,81.90
2017-05-15T02:18:02.970Z,82.80
2017-05-15T02:20:31.163Z,81.40
2017-05-15T02:25:36.874Z,81.40
2017-05-15T02:28:05.264Z,82.40
2017-05-15T02:30:33.041Z,82.70
2017-05-15T02:33:01.420Z,82.80
2017-05-15T02:38:02.221Z,82.60
2017-05-15T02:40:30.531Z,82.60
2017-05-15T02:43:07.190Z,81.90
2017-05-15T02:50:40.688Z,82.10
2017-05-15T02:55:45.564Z,81.90
2017-05-15T03:01:00.386Z,82.00
2017-05-15T03:06:04.346Z,82.30
2017-05-15T03:13:40.171Z,82.30
2017-05-15T03:16:09.880Z,83.50
2017-05-15T03:18:41.143Z,83.70
2017-05-15T03:21:11.777Z,83.50
2017-05-15T03:26:11.025Z,83.70
2017-05-15T03:28:40.843Z,83.00
2017-05-15T03:44:10.854Z,83.00
2017-05-15T03:46:43.695Z,83.00
2017-05-15T03:49:16.438Z,83.00
2017-05-15T03:54:16.521Z,83.90
2017-05-15T03:56:44.361Z,84.40
2017-05-15T03:59:11.986Z,83.00
2017-05-15T04:01:40.496Z,83.00
2017-05-15T04:06:45.209Z,83.30
2017-05-15T04:09:15.717Z,82.30
2017-05-15T04:19:21.832Z,82.10
2017-05-15T04:21:50.014Z,82.50
2017-05-15T04:26:55.082Z,80.90
2017-05-15T04:29:24.061Z,80.70
2017-05-15T04:31:51.527Z,80.90
2017-05-15T04:34:20.075Z,80.50
2017-05-15T04:36:47.963Z,81.60
2017-05-15T04:39:15.645Z,81.50
2017-05-15T04:41:48.041Z,81.70
2017-05-15T04:46:49.297Z,81.20
2017-05-15T04:49:16.810Z,80.00
2017-05-15T04:51:45.606Z,80.30
2017-05-15T04:54:16.235Z,79.40
2017-05-15T04:56:50.054Z,79.40
2017-05-15T05:01:57.374Z,80.20
2017-05-15T05:06:57.866Z,79.50
2017-05-15T05:09:25.351Z,79.50
2017-05-15T05:11:57.017Z,79.10
2017-05-15T05:17:01.923Z,79.10
2017-05-15T05:19:51.137Z,79.10
2017-05-15T05:28:25.719Z,79.50
2017-05-15T05:31:09.256Z,79.30
2017-05-15T05:33:48.063Z,78.80
2017-05-15T05:36:27.608Z,78.50
2017-05-15T05:44:21.189Z,78.10
2017-05-15T05:46:52.894Z,78.10
2017-05-15T05:49:25.866Z,79.10
2017-05-15T05:51:57.039Z,78.30
2017-05-15T06:02:51.678Z,78.20
2017-05-15T06:14:01.599Z,78.40
2017-05-15T06:16:46.470Z,79.00
2017-05-15T06:21:55.825Z,78.90
2017-05-15T06:29:50.350Z,76.90
2017-05-15T06:32:18.696Z,76.30
2017-05-15T06:34:50.820Z,76.30
2017-05-15T06:40:19.689Z,75.10
2017-05-15T06:42:59.149Z,75.40
2017-05-15T06:59:15.731Z,72.90
2017-05-15T07:01:56.538Z,72.60
2017-05-15T07:11:36.495Z,73.00
2017-05-15T07:14:11.397Z,71.70
2017-05-15T07:16:39.987Z,70.80
2017-05-15T07:22:01.902Z,69.60
2017-05-15T07:41:21.313Z,67.90
2017-05-15T07:46:41.558Z,66.80
2017-05-15T07:49:13.497Z,64.90
2017-05-15T07:54:52.629Z,65.80
2017-05-15T07:57:26.335Z,66.30
2017-05-15T08:00:02.766Z,66.30
2017-05-15T08:02:37.734Z,63.20
2017-05-15T08:05:07.894Z,60.70
2017-05-15T08:16:05.310Z,61.20
2017-05-15T08:21:22.317Z,60.10
2017-05-15T08:24:00.475Z,59.00
2017-05-15T08:29:17.546Z,60.30
2017-05-15T08:34:42.157Z,58.50
2017-05-15T08:37:18.838Z,57.10
2017-05-15T08:42:26.590Z,59.00
2017-05-15T08:44:55.238Z,57.70
2017-05-15T09:02:53.668Z,62.90
2017-05-15T09:08:04.930Z,60.70
2017-05-15T09:15:47.782Z,60.90
2017-05-15T09:18:21.467Z,61.90
2017-05-15T09:20:50.607Z,62.70
2017-05-15T09:23:27.629Z,59.20
2017-05-15T09:31:16.059Z,56.70
2017-05-15T09:33:44.418Z,57.40
2017-05-15T09:41:29.074Z,55.50
2017-05-15T09:46:43.419Z,53.60
2017-05-15T09:49:12.146Z,53.60
2017-05-15T09:51:45.214Z,52.60
2017-05-15T09:54:23.770Z,51.10
2017-05-15T09:59:40.115Z,53.00
2017-05-15T10:15:29.025Z,51.70
2017-05-15T10:18:05.733Z,52.70
2017-05-15T10:20:37.742Z,52.70
2017-05-15T10:23:22.509Z,55.10
2017-05-15T10:25:50.853Z,55.90
2017-05-15T10:28:27.707Z,55.20
2017-05-15T10:36:26.102Z,54.00
2017-05-15T10:38:57.550Z,51.90
2017-05-15T10:41:30.261Z,53.20
2017-05-15T10:46:32.265Z,56.70
2017-05-15T10:59:32.159Z,48.60
2017-05-15T11:02:03.745Z,46.90
2017-05-15T11:04:38.179Z,50.00
2017-05-15T11:07:05.013Z,50.00
2017-05-15T11:09:47.319Z,51.00
2017-05-15T11:12:27.747Z,51.10
2017-05-15T11:14:55.956Z,53.10
2017-05-15T11:22:41.457Z,51.70
2017-05-15T11:33:38.229Z,51.50
2017-05-15T11:44:25.050Z,53.20
2017-05-15T11:49:42.166Z,53.70
2017-05-15T11:52:11.988Z,54.00
2017-05-15T11:54:46.993Z,52.60
2017-05-15T12:00:03.674Z,53.30
2017-05-15T12:05:21.445Z,45.90
2017-05-15T12:11:03.924Z,41.80
2017-05-15T12:16:30.611Z,35.40
2017-05-15T12:21:48.130Z,30.90
2017-05-15T12:51:50.875Z,25.10
2017-05-15T13:31:07.425Z,43.40
2017-05-15T13:58:13.910Z,61.80
2017-05-15T14:01:03.858Z,63.10
2017-05-15T14:11:24.379Z,66.30
2017-05-15T14:19:44.812Z,69.70
2017-05-15T14:22:21.457Z,70.70
2017-05-15T14:31:08.430Z,71.70
2017-05-15T14:54:27.337Z,42.50
2017-05-15T15:00:04.028Z,37.00
2017-05-15T15:18:54.697Z,35.60
2017-05-15T15:21:42.296Z,33.40
2017-05-15T15:39:58.721Z,34.60
2017-05-15T15:42:31.824Z,35.00
2017-05-15T15:47:52.130Z,35.60
2017-05-15T16:01:30.071Z,32.70
2017-05-15T16:12:33.402Z,33.30
2017-05-15T16:39:22.217Z,37.60
2017-05-15T16:41:50.677Z,37.50
2017-05-15T16:44:18.424Z,40.20
2017-05-15T16:46:48.406Z,39.40
2017-05-15T16:49:18.133Z,38.10
2017-05-15T16:51:46.725Z,36.60
2017-05-15T16:54:16.571Z,38.50
2017-05-15T16:56:44.562Z,40.80
2017-05-15T16:59:11.990Z,41.20
2017-05-15T17:01:39.260Z,44.30
2017-05-15T17:04:05.646Z,44.40
2017-05-15T17:06:34.228Z,44.20
2017-05-15T17:09:01.809Z,47.20
2017-05-15T17:11:29.628Z,48.10
2017-05-15T17:13:59.336Z,49.60
2017-05-15T17:21:54.247Z,52.40
2017-05-15T17:29:59.144Z,52.90
2017-05-15T17:32:28.846Z,53.20
2017-05-15T17:38:00.212Z,55.00
2017-05-15T17:48:41.356Z,58.30
2017-05-15T17:59:40.130Z,60.90
2017-05-15T18:27:49.150Z,60.90
2017-05-15T18:38:29.367Z,64.00
2017-05-15T19:11:04.842Z,68.80
2017-05-15T19:13:33.035Z,69.00
2017-05-15T19:16:02.768Z,68.80
2017-05-15T19:18:30.994Z,68.60
2017-05-15T19:20:59.043Z,68.60
2017-05-15T19:23:30.545Z,70.80
2017-05-15T19:25:58.732Z,71.20
2017-05-15T19:28:28.270Z,71.60
2017-05-15T19:31:00.350Z,71.20
2017-05-15T19:33:27.351Z,71.20
2017-05-15T19:35:57.143Z,72.10
2017-05-15T19:38:28.341Z,72.60
2017-05-15T19:40:59.148Z,72.30
2017-05-15T19:43:28.725Z,72.70
2017-05-15T19:45:57.335Z,73.00
2017-05-15T19:48:25.100Z,73.10
2017-05-15T19:50:52.921Z,73.00
2017-05-15T19:53:19.474Z,73.00
2017-05-15T19:55:50.830Z,73.10
2017-05-15T19:58:18.622Z,73.20
2017-05-15T20:00:46.649Z,73.40
2017-05-15T20:03:19.486Z,73.40
2017-05-15T20:05:47.462Z,73.70
2017-05-15T20:08:17.754Z,74.40
2017-05-15T20:10:46.023Z,75.10
2017-05-15T20:13:14.558Z,75.10
2017-05-15T20:15:44.298Z,75.30
2017-05-15T20:18:13.379Z,75.30
2017-05-15T20:20:40.882Z,74.90
2017-05-15T20:23:09.326Z,74.90
2017-05-15T20:25:37.189Z,74.40
2017-05-15T20:28:07.757Z,74.40
2017-05-15T20:30:35.614Z,74.70
2017-05-15T20:33:04.800Z,74.70
2017-05-15T20:35:35.257Z,74.70
2017-05-15T20:38:04.751Z,75.90
2017-05-15T20:40:32.228Z,75.90
2017-05-15T20:43:02.473Z,76.30
2017-05-15T20:45:31.259Z,76.30
2017-05-15T20:48:00.611Z,76.10
2017-05-15T20:50:28.680Z,76.10
2017-05-15T20:52:59.178Z,76.00
2017-05-15T20:55:26.813Z,75.70
2017-05-15T20:57:56.377Z,75.70
2017-05-15T21:00:25.697Z,76.10
2017-05-15T21:02:54.403Z,76.50
2017-05-15T21:05:24.119Z,76.10
2017-05-15T21:07:56.299Z,76.10
2017-05-15T21:10:25.685Z,75.90
2017-05-15T21:12:53.942Z,75.90
2017-05-15T21:15:24.093Z,76.50
2017-05-15T21:17:51.686Z,76.80
2017-05-15T21:20:20.129Z,76.90
2017-05-15T21:22:51.028Z,77.30
2017-05-15T21:25:19.255Z,77.30
2017-05-15T21:27:46.975Z,76.70
2017-05-15T21:30:17.238Z,77.50
2017-05-15T21:32:45.151Z,77.30
2017-05-15T21:35:17.471Z,77.00
2017-05-15T21:37:48.000Z,76.30
2017-05-15T21:40:26.124Z,75.60
2017-05-15T21:42:54.680Z,76.00
2017-05-15T21:45:25.599Z,76.90
2017-05-15T21:47:59.151Z,76.00
2017-05-15T21:50:28.229Z,76.20
2017-05-15T21:52:57.694Z,76.20
2017-05-15T21:55:29.316Z,77.60
2017-05-15T21:57:59.593Z,76.90
2017-05-15T22:00:28.226Z,77.00
2017-05-15T22:02:57.251Z,76.40
2017-05-15T22:05:29.286Z,76.50
2017-05-15T22:07:59.000Z,77.10
2017-05-15T22:10:27.600Z,76.80
2017-05-15T22:12:57.124Z,76.70
2017-05-15T22:15:26.263Z,76.70
2017-05-15T22:17:54.926Z,76.50
2017-05-15T22:20:27.412Z,77.10
2017-05-15T22:22:55.143Z,76.90
2017-05-15T22:25:23.125Z,76.80
2017-05-15T22:27:51.154Z,76.80
2017-05-15T22:30:22.491Z,76.30
2017-05-15T22:32:51.212Z,76.90
2017-05-15T22:35:22.574Z,77.10
2017-05-15T22:37:50.510Z,77.20
2017-05-15T22:40:20.267Z,76.60
2017-05-15T22:42:54.676Z,77.00
2017-05-15T22:45:25.232Z,76.80
2017-05-15T22:47:54.766Z,77.10
2017-05-15T22:50:23.704Z,77.10
2017-05-15T22:52:53.136Z,76.10
2017-05-15T22:55:23.018Z,77.00
2017-05-15T22:57:52.519Z,76.50
2017-05-15T23:00:21.191Z,76.50
2017-05-15T23:02:49.746Z,76.00
2017-05-15T23:05:19.708Z,76.00
2017-05-15T23:07:50.129Z,76.00
2017-05-15T23:10:19.509Z,76.20
2017-05-15T23:12:46.764Z,76.50
2017-05-15T23:15:15.286Z,76.70
2017-05-15T23:17:43.078Z,76.60
2017-05-15T23:20:09.518Z,76.60
2017-05-15T23:22:37.644Z,75.80
2017-05-15T23:25:09.163Z,75.90
2017-05-15T23:27:40.605Z,75.90
2017-05-15T23:30:11.673Z,76.30
2017-05-15T23:32:40.999Z,76.00
2017-05-15T23:35:09.090Z,76.30
2017-05-15T23:37:37.866Z,76.30
2017-05-15T23:40:04.898Z,77.50
2017-05-15T23:42:34.861Z,77.50
2017-05-15T23:45:06.306Z,75.30
2017-05-15T23:47:36.642Z,77.00
2017-05-15T23:50:04.912Z,75.60
2017-05-15T23:52:33.554Z,77.00
2017-05-15T23:55:04.082Z,76.40
2017-05-15T23:57:33.111Z,76.20
2017-05-15T23:59:59.493Z,76.20
